createdAt,value
2018-09-17T00:02:06.896Z,13.41
2018-09-17T00:04:36.664Z,13.39
2018-09-17T00:07:06.424Z,13.37
2018-09-17T00:09:36.177Z,13.37
2018-09-17T00:12:05.990Z,13.38
2018-09-17T00:14:35.796Z,13.39
2018-09-17T00:17:05.620Z,13.36
2018-09-17T00:19:35.440Z,13.38
2018-09-17T00:22:05.264Z,13.39
2018-09-17T00:24:34.704Z,13.42
2018-09-17T00:27:04.464Z,13.38
2018-09-17T00:29:33.864Z,13.40
2018-09-17T00:32:03.664Z,13.38
2018-09-17T00:34:33.414Z,13.34
2018-09-17T00:37:03.132Z,13.31
2018-09-17T00:39:32.896Z,13.29
2018-09-17T00:42:03.176Z,13.31
2018-09-17T00:44:32.967Z,13.32
2018-09-17T00:47:02.653Z,13.30
2018-09-17T00:49:32.401Z,13.29
2018-09-17T00:52:02.163Z,13.23
2018-09-17T00:54:31.698Z,13.26
2018-09-17T00:57:01.485Z,13.19
2018-09-17T00:59:31.232Z,13.15
2018-09-17T01:02:01.119Z,13.13
2018-09-17T01:04:30.857Z,13.09
2018-09-17T01:07:00.595Z,13.04
2018-09-17T01:09:35.623Z,12.98
2018-09-17T01:12:05.511Z,12.91
2018-09-17T01:14:35.302Z,12.85
2018-09-17T01:17:05.263Z,12.78
2018-09-17T01:19:35.037Z,12.68
2018-09-17T01:22:04.795Z,12.62
2018-09-17T01:24:34.271Z,12.62
2018-09-17T01:27:03.999Z,12.63
2018-09-17T01:29:33.791Z,12.64
2018-09-17T01:32:03.465Z,12.54
2018-09-17T01:34:33.192Z,12.54
2018-09-17T01:37:02.946Z,12.55
2018-09-17T01:39:32.684Z,12.48
2018-09-17T01:42:02.392Z,12.46
2018-09-17T01:44:32.094Z,12.45
2018-09-17T01:47:01.438Z,12.51
2018-09-17T01:49:31.052Z,12.52
2018-09-17T01:52:00.748Z,12.51
2018-09-17T01:54:30.458Z,12.50
2018-09-17T01:57:00.191Z,12.44
2018-09-17T01:59:29.902Z,12.40
2018-09-17T02:01:59.309Z,12.37
2018-09-17T02:04:28.786Z,12.30
2018-09-17T02:06:59.107Z,12.22
2018-09-17T02:09:29.791Z,12.16
2018-09-17T02:11:59.113Z,12.09
2018-09-17T02:14:28.461Z,12.11
2018-09-17T02:16:57.832Z,12.05
2018-09-17T02:19:27.227Z,12.05
2018-09-17T02:21:56.900Z,12.03
2018-09-17T02:24:26.757Z,12.04
2018-09-17T02:26:56.693Z,12.05
2018-09-17T02:29:26.530Z,12.09
2018-09-17T02:31:56.009Z,12.05
2018-09-17T02:34:26.366Z,12.02
2018-09-17T02:36:55.823Z,12.04
2018-09-17T02:39:25.706Z,12.04
2018-09-17T02:41:56.578Z,12.07
2018-09-17T02:44:26.487Z,12.09
2018-09-17T02:46:56.387Z,12.13
2018-09-17T02:49:26.244Z,12.17
2018-09-17T02:51:56.661Z,12.18
2018-09-17T02:54:26.454Z,12.20
2018-09-17T02:56:55.880Z,12.24
2018-09-17T02:59:25.459Z,12.28
2018-09-17T03:01:55.370Z,12.29
2018-09-17T03:04:24.829Z,12.28
2018-09-17T03:06:54.624Z,12.26
2018-09-17T03:09:24.562Z,12.23
2018-09-17T03:11:55.104Z,12.18
2018-09-17T03:14:31.144Z,12.12
2018-09-17T03:17:14.365Z,12.04
2018-09-17T03:19:45.634Z,11.99
2018-09-17T03:22:16.116Z,11.95
2018-09-17T03:24:45.516Z,11.90
2018-09-17T03:27:16.141Z,11.83
2018-09-17T03:29:46.058Z,11.72
2018-09-17T03:32:15.998Z,11.74
2018-09-17T03:34:45.808Z,11.73
2018-09-17T03:37:15.588Z,11.71
2018-09-17T03:39:45.311Z,11.62
2018-09-17T03:42:15.177Z,11.54
2018-09-17T03:44:45.023Z,11.40
2018-09-17T03:47:14.401Z,11.33
2018-09-17T03:49:43.917Z,11.30
2018-09-17T03:52:13.413Z,11.24
2018-09-17T03:54:43.266Z,11.17
2018-09-17T03:57:13.163Z,11.10
2018-09-17T03:59:42.924Z,11.02
2018-09-17T04:02:13.498Z,10.93
2018-09-17T04:04:43.709Z,10.83
2018-09-17T04:07:13.983Z,10.74
2018-09-17T04:09:45.361Z,10.71
2018-09-17T04:12:16.233Z,10.66
2018-09-17T04:14:46.062Z,10.57
2018-09-17T04:17:16.537Z,10.50
2018-09-17T04:19:46.347Z,10.45
2018-09-17T04:22:16.541Z,10.41
2018-09-17T04:24:46.324Z,10.48
2018-09-17T04:27:16.207Z,10.47
2018-09-17T04:29:45.702Z,10.40
2018-09-17T04:32:16.481Z,10.32
2018-09-17T04:34:49.901Z,10.26
2018-09-17T04:37:19.849Z,10.29
2018-09-17T04:39:49.761Z,10.28
2018-09-17T04:42:19.636Z,10.26
2018-09-17T04:44:49.389Z,10.27
2018-09-17T04:47:19.185Z,10.29
2018-09-17T04:49:48.915Z,10.30
2018-09-17T04:52:18.705Z,10.32
2018-09-17T04:54:48.425Z,10.35
2018-09-17T04:57:18.381Z,10.36
2018-09-17T04:59:48.181Z,10.41
2018-09-17T05:02:17.637Z,10.40
2018-09-17T05:04:47.371Z,10.42
2018-09-17T05:07:17.319Z,10.45
2018-09-17T05:09:47.011Z,10.54
2018-09-17T05:12:16.833Z,10.57
2018-09-17T05:14:47.035Z,10.62
2018-09-17T05:17:16.765Z,10.66
2018-09-17T05:19:46.508Z,10.71
2018-09-17T05:22:16.229Z,10.79
2018-09-17T05:24:45.954Z,10.88
2018-09-17T05:27:15.355Z,10.91
2018-09-17T05:29:45.427Z,10.96
2018-09-17T05:32:15.138Z,11.06
2018-09-17T05:34:44.851Z,11.15
2018-09-17T05:37:14.525Z,11.19
2018-09-17T05:39:43.873Z,11.22
2018-09-17T05:42:13.220Z,11.30
2018-09-17T05:44:43.019Z,11.41
2018-09-17T05:47:12.707Z,11.53
2018-09-17T05:49:42.465Z,11.68
2018-09-17T05:52:12.133Z,11.76
2018-09-17T05:54:41.911Z,11.86
2018-09-17T05:57:11.645Z,12.03
2018-09-17T05:59:41.533Z,12.15
2018-09-17T06:02:11.167Z,12.22
2018-09-17T06:04:40.937Z,12.36
2018-09-17T06:07:10.713Z,12.46
2018-09-17T06:09:40.428Z,12.60
2018-09-17T06:12:10.149Z,12.72
2018-09-17T06:14:39.988Z,12.85
2018-09-17T06:17:09.741Z,12.96
2018-09-17T06:19:39.529Z,13.08
2018-09-17T06:22:09.300Z,13.19
2018-09-17T06:24:39.072Z,13.34
2018-09-17T06:27:08.929Z,13.44
2018-09-17T06:29:38.651Z,13.57
2018-09-17T06:32:08.088Z,13.69
2018-09-17T06:34:37.508Z,13.84
2018-09-17T06:37:07.366Z,14.01
2018-09-17T06:39:37.092Z,14.07
2018-09-17T06:42:06.833Z,14.19
2018-09-17T06:44:36.609Z,14.33
2018-09-17T06:47:06.350Z,14.45
2018-09-17T06:49:36.184Z,14.63
2018-09-17T06:52:05.926Z,14.82
2018-09-17T06:54:35.675Z,14.93
2018-09-17T06:57:05.525Z,15.08
2018-09-17T06:59:35.355Z,15.20
2018-09-17T07:02:05.227Z,15.29
2018-09-17T07:04:35.015Z,15.44
2018-09-17T07:07:05.248Z,15.56
2018-09-17T07:09:35.034Z,15.76
2018-09-17T07:12:04.795Z,15.88
2018-09-17T07:14:34.586Z,15.97
2018-09-17T07:17:04.349Z,16.16
2018-09-17T07:19:34.169Z,16.30
2018-09-17T07:22:03.950Z,16.38
2018-09-17T07:24:33.758Z,16.48
2018-09-17T07:27:03.504Z,16.51
2018-09-17T07:29:33.245Z,16.57
2018-09-17T07:32:03.825Z,16.70
2018-09-17T07:34:33.532Z,16.82
2018-09-17T07:37:04.809Z,16.93
2018-09-17T07:39:34.612Z,17.04
2018-09-17T07:42:04.604Z,17.13
2018-09-17T07:44:34.330Z,17.28
2018-09-17T07:47:04.116Z,17.34
2018-09-17T07:49:33.886Z,17.42
2018-09-17T07:52:04.796Z,17.52
2018-09-17T07:54:36.476Z,17.66
2018-09-17T07:57:06.291Z,17.97
2018-09-17T07:59:36.041Z,18.00
2018-09-17T08:02:05.783Z,18.05
2018-09-17T08:04:35.270Z,18.11
2018-09-17T08:07:06.662Z,18.13
2018-09-17T08:09:37.242Z,18.30
2018-09-17T08:12:07.121Z,18.38
2018-09-17T08:14:37.726Z,18.44
2018-09-17T08:17:07.682Z,18.52
2018-09-17T08:19:37.652Z,18.71
2018-09-17T08:22:07.410Z,18.83
2018-09-17T08:24:37.207Z,18.95
2018-09-17T08:27:07.327Z,19.00
2018-09-17T08:29:37.080Z,19.04
2018-09-17T08:32:06.940Z,19.12
2018-09-17T08:34:36.707Z,19.39
2018-09-17T08:37:06.682Z,19.44
2018-09-17T08:39:36.472Z,19.52
2018-09-17T08:42:06.385Z,19.83
2018-09-17T08:44:36.283Z,19.98
2018-09-17T08:47:06.235Z,20.19
2018-09-17T08:49:36.007Z,20.21
2018-09-17T08:52:05.859Z,20.19
2018-09-17T08:54:39.640Z,20.13
2018-09-17T08:57:14.413Z,20.15
2018-09-17T08:59:51.064Z,20.19
2018-09-17T09:02:26.387Z,20.26
2018-09-17T09:04:56.445Z,20.38
2018-09-17T09:07:36.286Z,20.73
2018-09-17T09:10:12.603Z,20.84
2018-09-17T09:12:47.230Z,20.98
2018-09-17T09:15:19.035Z,21.16
2018-09-17T09:17:48.855Z,21.31
2018-09-17T09:20:18.619Z,21.37
2018-09-17T09:22:48.421Z,21.44
2018-09-17T09:25:18.243Z,21.58
2018-09-17T09:27:48.071Z,21.72
2018-09-17T09:30:17.895Z,21.86
2018-09-17T09:32:47.660Z,22.03
2018-09-17T09:35:18.099Z,22.16
2018-09-17T09:37:48.802Z,22.29
2018-09-17T09:40:19.398Z,22.46
2018-09-17T09:42:49.174Z,22.58
2018-09-17T09:45:20.275Z,22.70
2018-09-17T09:47:50.163Z,22.86
2018-09-17T09:50:19.939Z,23.04
2018-09-17T09:52:49.960Z,23.16
2018-09-17T09:55:19.874Z,23.34
2018-09-17T09:57:50.652Z,23.55
2018-09-17T10:00:25.641Z,23.78
2018-09-17T10:03:00.519Z,23.97
2018-09-17T10:05:30.716Z,24.08
2018-09-17T10:08:00.707Z,24.12
2018-09-17T10:10:35.671Z,24.23
2018-09-17T10:13:11.119Z,24.41
2018-09-17T10:15:46.677Z,24.63
2018-09-17T10:18:21.631Z,24.92
2018-09-17T10:20:52.439Z,25.00
2018-09-17T10:23:23.538Z,25.30
2018-09-17T10:25:53.317Z,25.66
2018-09-17T10:28:25.506Z,26.01
2018-09-17T10:30:55.253Z,26.20
2018-09-17T10:33:25.178Z,26.36
2018-09-17T10:35:54.934Z,26.23
2018-09-17T10:38:24.626Z,26.02
2018-09-17T10:40:54.331Z,25.73
2018-09-17T10:43:24.350Z,25.35
2018-09-17T10:45:54.172Z,25.09
2018-09-17T10:48:24.654Z,24.92
2018-09-17T10:50:54.499Z,24.82
2018-09-17T10:53:24.352Z,24.85
2018-09-17T10:55:54.243Z,24.85
2018-09-17T10:58:24.541Z,24.88
2018-09-17T11:00:54.434Z,24.92
2018-09-17T11:03:25.242Z,24.95
2018-09-17T11:05:55.629Z,24.88
2018-09-17T11:08:25.483Z,24.77
2018-09-17T11:10:55.372Z,24.65
2018-09-17T11:13:25.232Z,24.50
2018-09-17T11:15:55.146Z,24.36
2018-09-17T11:18:24.966Z,24.29
2018-09-17T11:20:54.818Z,24.34
2018-09-17T11:23:24.695Z,24.41
2018-09-17T11:25:54.438Z,24.44
2018-09-17T11:28:24.276Z,24.42
2018-09-17T11:30:54.222Z,24.47
2018-09-17T11:33:24.084Z,24.56
2018-09-17T11:35:53.888Z,24.63
2018-09-17T11:38:24.674Z,24.69
2018-09-17T11:40:54.458Z,24.73
2018-09-17T11:43:24.329Z,24.76
2018-09-17T11:45:54.076Z,24.88
2018-09-17T11:48:23.992Z,24.91
2018-09-17T11:50:53.795Z,24.87
2018-09-17T11:53:23.670Z,24.80
2018-09-17T11:55:53.705Z,24.68
2018-09-17T11:58:24.099Z,24.64
2018-09-17T12:00:59.034Z,24.53
2018-09-17T12:03:34.066Z,24.42
2018-09-17T12:06:05.298Z,24.35
2018-09-17T12:08:35.706Z,24.39
2018-09-17T12:11:05.738Z,24.48
2018-09-17T12:13:35.434Z,24.45
2018-09-17T12:16:05.450Z,24.49
2018-09-17T12:18:35.319Z,24.46
2018-09-17T12:21:05.217Z,24.38
2018-09-17T12:23:34.987Z,24.44
2018-09-17T12:26:04.773Z,24.46
2018-09-17T12:28:34.586Z,24.48
2018-09-17T12:31:04.474Z,24.51
2018-09-17T12:33:36.110Z,24.55
2018-09-17T12:36:05.894Z,24.65
2018-09-17T12:38:35.738Z,24.57
2018-09-17T12:41:06.842Z,24.49
2018-09-17T12:43:36.789Z,24.40
2018-09-17T12:46:06.707Z,24.40
2018-09-17T12:48:36.529Z,24.44
2018-09-17T12:51:06.324Z,24.70
2018-09-17T12:53:36.166Z,24.78
2018-09-17T12:56:06.040Z,25.00
2018-09-17T12:58:35.806Z,24.98
2018-09-17T13:01:05.613Z,25.10
2018-09-17T13:03:35.367Z,25.12
2018-09-17T13:06:05.118Z,25.05
2018-09-17T13:08:34.838Z,24.97
2018-09-17T13:11:04.670Z,25.06
2018-09-17T13:13:34.481Z,25.05
2018-09-17T13:16:04.296Z,25.12
2018-09-17T13:18:33.958Z,25.19
2018-09-17T13:21:03.722Z,25.29
2018-09-17T13:23:33.793Z,25.43
2018-09-17T13:26:03.542Z,25.58
2018-09-17T13:28:33.270Z,25.65
2018-09-17T13:31:03.032Z,25.67
2018-09-17T13:33:32.743Z,25.65
2018-09-17T13:36:02.483Z,25.61
2018-09-17T13:38:32.317Z,25.55
2018-09-17T13:41:02.954Z,25.45
2018-09-17T13:43:32.693Z,25.41
2018-09-17T13:46:02.379Z,25.38
2018-09-17T13:48:32.159Z,25.46
2018-09-17T13:51:01.939Z,25.54
2018-09-17T13:53:31.894Z,25.52
2018-09-17T13:56:01.533Z,25.53
2018-09-17T13:58:31.329Z,25.47
2018-09-17T14:01:01.100Z,25.46
2018-09-17T14:03:30.883Z,25.50
2018-09-17T14:06:00.625Z,25.34
2018-09-17T14:08:30.432Z,25.32
2018-09-17T14:11:00.235Z,25.43
2018-09-17T14:13:29.947Z,25.58
2018-09-17T14:16:07.700Z,25.64
2018-09-17T14:18:38.314Z,25.49
2018-09-17T14:21:08.521Z,25.37
2018-09-17T14:23:38.265Z,25.33
2018-09-17T14:26:08.008Z,25.23
2018-09-17T14:28:37.795Z,25.23
2018-09-17T14:31:07.609Z,25.27
2018-09-17T14:33:42.823Z,25.24
2018-09-17T14:36:12.237Z,25.23
2018-09-17T14:38:41.989Z,25.19
2018-09-17T14:41:11.751Z,25.25
2018-09-17T14:43:41.566Z,25.29
2018-09-17T14:46:11.344Z,25.42
2018-09-17T14:48:41.017Z,25.60
2018-09-17T14:51:10.762Z,25.74
2018-09-17T14:53:40.659Z,25.90
2018-09-17T14:56:10.478Z,26.06
2018-09-17T14:58:40.300Z,26.27
2018-09-17T15:01:10.067Z,26.42
2018-09-17T15:03:39.848Z,26.60
2018-09-17T15:06:09.631Z,26.65
2018-09-17T15:08:39.451Z,26.59
2018-09-17T15:11:09.355Z,26.44
2018-09-17T15:13:39.255Z,26.21
2018-09-17T15:16:09.151Z,26.03
2018-09-17T15:18:38.999Z,25.86
2018-09-17T15:21:10.648Z,25.67
2018-09-17T15:23:40.846Z,25.46
2018-09-17T15:26:10.851Z,25.29
2018-09-17T15:28:42.332Z,25.22
2018-09-17T15:31:13.456Z,25.11
2018-09-17T15:33:43.293Z,25.03
2018-09-17T15:36:26.447Z,25.00
2018-09-17T15:38:56.544Z,25.01
2018-09-17T15:41:26.678Z,25.04
2018-09-17T15:43:56.786Z,25.05
2018-09-17T15:46:26.633Z,25.01
2018-09-17T15:49:01.412Z,24.90
2018-09-17T15:51:31.290Z,24.80
2018-09-17T15:54:04.084Z,24.74
2018-09-17T15:56:34.624Z,24.61
2018-09-17T15:59:05.123Z,24.58
2018-09-17T16:01:38.935Z,24.52
2018-09-17T16:04:09.012Z,24.41
2018-09-17T16:06:38.822Z,24.28
2018-09-17T16:09:08.400Z,24.12
2018-09-17T16:11:38.589Z,23.94
2018-09-17T16:14:08.292Z,23.80
2018-09-17T16:16:38.143Z,23.65
2018-09-17T16:19:08.085Z,23.55
2018-09-17T16:21:38.292Z,23.39
2018-09-17T16:24:08.372Z,23.21
2018-09-17T16:26:38.853Z,23.07
2018-09-17T16:29:08.898Z,22.97
2018-09-17T16:31:38.646Z,23.00
2018-09-17T16:34:10.269Z,22.95
2018-09-17T16:36:40.030Z,22.75
2018-09-17T16:39:11.367Z,22.54
2018-09-17T16:41:41.603Z,22.41
2018-09-17T16:44:12.944Z,22.30
2018-09-17T16:46:42.754Z,22.28
2018-09-17T16:49:12.894Z,22.13
2018-09-17T16:51:42.999Z,21.93
2018-09-17T16:54:12.749Z,21.72
2018-09-17T16:56:42.822Z,21.41
2018-09-17T16:59:12.714Z,21.14
2018-09-17T17:01:45.954Z,20.88
2018-09-17T17:04:18.661Z,20.68
2018-09-17T17:06:55.386Z,20.52
2018-09-17T17:09:26.064Z,20.46
2018-09-17T17:11:56.084Z,20.33
2018-09-17T17:14:25.950Z,20.09
2018-09-17T17:16:55.690Z,19.88
2018-09-17T17:19:25.613Z,19.70
2018-09-17T17:21:55.695Z,19.51
2018-09-17T17:24:26.324Z,19.35
2018-09-17T17:26:56.680Z,19.22
2018-09-17T17:29:26.968Z,19.11
2018-09-17T17:31:58.076Z,18.98
2018-09-17T17:34:28.272Z,18.84
2018-09-17T17:36:58.310Z,18.73
2018-09-17T17:39:28.458Z,18.62
2018-09-17T17:41:58.388Z,18.52
2018-09-17T17:44:28.736Z,18.52
2018-09-17T17:46:58.340Z,18.47
2018-09-17T17:49:28.324Z,18.37
2018-09-17T17:51:58.310Z,18.19
2018-09-17T17:54:30.356Z,18.06
2018-09-17T17:57:00.460Z,17.96
2018-09-17T17:59:30.079Z,17.95
2018-09-17T18:02:00.666Z,17.93
2018-09-17T18:04:30.870Z,17.85
2018-09-17T18:07:01.346Z,17.76
2018-09-17T18:09:31.618Z,17.67
2018-09-17T18:12:01.703Z,17.61
2018-09-17T18:14:31.316Z,17.60
2018-09-17T18:17:01.059Z,17.58
2018-09-17T18:19:31.180Z,17.48
2018-09-17T18:22:00.940Z,17.38
2018-09-17T18:24:30.903Z,17.31
2018-09-17T18:27:01.032Z,17.26
2018-09-17T18:29:31.201Z,17.20
2018-09-17T18:32:01.568Z,17.16
2018-09-17T18:34:31.719Z,17.11
2018-09-17T18:37:01.883Z,17.04
2018-09-17T18:39:32.005Z,17.02
2018-09-17T18:42:02.336Z,17.00
2018-09-17T18:44:32.186Z,16.92
2018-09-17T18:47:01.759Z,16.89
2018-09-17T18:49:33.399Z,17.06
2018-09-17T18:52:04.345Z,17.15
2018-09-17T18:54:34.283Z,17.23
2018-09-17T18:57:04.817Z,17.25
2018-09-17T18:59:34.859Z,17.26
2018-09-17T19:02:05.067Z,17.35
2018-09-17T19:04:34.815Z,17.31
2018-09-17T19:07:04.606Z,17.30
2018-09-17T19:09:39.931Z,17.29
2018-09-17T19:12:10.770Z,17.34
2018-09-17T19:14:45.475Z,17.35
2018-09-17T19:17:20.871Z,17.28
2018-09-17T19:19:51.051Z,17.21
2018-09-17T19:22:27.920Z,17.16
2018-09-17T19:24:58.780Z,17.19
2018-09-17T19:28:34.351Z,17.21
2018-09-17T19:31:04.891Z,17.16
2018-09-17T19:33:37.371Z,17.19
2018-09-17T19:36:07.989Z,17.17
2018-09-17T19:38:43.126Z,17.15
2018-09-17T19:41:23.536Z,17.12
2018-09-17T19:44:03.825Z,17.05
2018-09-17T19:46:34.055Z,16.98
2018-09-17T19:49:04.936Z,16.97
2018-09-17T19:51:40.357Z,16.97
2018-09-17T19:54:11.724Z,17.06
2018-09-17T19:56:50.345Z,17.03
2018-09-17T19:59:35.039Z,16.98
2018-09-17T20:02:12.850Z,16.90
2018-09-17T20:04:56.148Z,16.84
2018-09-17T20:07:28.288Z,16.79
2018-09-17T20:09:58.720Z,16.80
2018-09-17T20:12:28.491Z,16.78
2018-09-17T20:14:58.454Z,16.71
2018-09-17T20:17:27.976Z,16.65
2018-09-17T20:19:57.410Z,16.77
2018-09-17T20:22:26.826Z,16.76
2018-09-17T20:24:56.334Z,16.64
2018-09-17T20:27:26.190Z,16.52
2018-09-17T20:29:56.014Z,16.53
2018-09-17T20:32:25.979Z,16.52
2018-09-17T20:34:55.785Z,16.49
2018-09-17T20:37:25.376Z,16.47
2018-09-17T20:39:55.054Z,16.42
2018-09-17T20:42:24.566Z,16.38
2018-09-17T20:44:54.302Z,16.50
2018-09-17T20:47:24.246Z,16.58
2018-09-17T20:49:54.228Z,16.59
2018-09-17T20:52:23.585Z,16.60
2018-09-17T20:54:52.970Z,16.68
2018-09-17T20:57:22.862Z,16.71
2018-09-17T20:59:52.309Z,16.55
2018-09-17T21:02:22.196Z,16.51
2018-09-17T21:04:52.318Z,16.44
2018-09-17T21:07:22.153Z,16.44
2018-09-17T21:09:52.028Z,16.40
2018-09-17T21:12:21.867Z,16.45
2018-09-17T21:14:51.290Z,16.44
2018-09-17T21:17:21.105Z,16.42
2018-09-17T21:19:51.463Z,16.44
2018-09-17T21:22:21.333Z,16.40
2018-09-17T21:24:51.356Z,16.37
2018-09-17T21:27:21.018Z,16.33
2018-09-17T21:29:50.859Z,16.30
2018-09-17T21:32:20.782Z,16.30
2018-09-17T21:34:50.545Z,16.31
2018-09-17T21:37:20.933Z,16.47
2018-09-17T21:39:50.645Z,16.38
2018-09-17T21:42:20.133Z,16.29
2018-09-17T21:44:49.906Z,16.01
2018-09-17T21:47:19.346Z,16.23
2018-09-17T21:49:49.183Z,16.20
2018-09-17T21:52:19.019Z,16.16
2018-09-17T21:54:48.709Z,16.15
2018-09-17T21:57:18.493Z,16.19
2018-09-17T21:59:48.223Z,16.23
2018-09-17T22:02:19.150Z,16.31
2018-09-17T22:04:48.932Z,16.31
2018-09-17T22:07:18.715Z,16.23
2018-09-17T22:09:48.600Z,16.17
2018-09-17T22:12:18.936Z,16.13
2018-09-17T22:14:48.826Z,16.11
2018-09-17T22:17:18.631Z,16.07
2018-09-17T22:19:48.504Z,16.14
2018-09-17T22:22:18.245Z,16.11
2018-09-17T22:24:47.746Z,16.09
2018-09-17T22:27:17.498Z,16.09
2018-09-17T22:29:47.314Z,16.10
2018-09-17T22:32:17.083Z,16.09
2018-09-17T22:34:46.821Z,16.13
2018-09-17T22:37:16.709Z,16.14
2018-09-17T22:39:46.455Z,16.11
2018-09-17T22:42:16.315Z,16.10
2018-09-17T22:44:45.989Z,16.13
2018-09-17T22:47:15.804Z,16.09
2018-09-17T22:49:46.532Z,16.08
2018-09-17T22:52:16.284Z,16.08
2018-09-17T22:54:46.129Z,15.99
2018-09-17T22:57:15.646Z,15.96
2018-09-17T22:59:45.458Z,15.90
2018-09-17T23:02:15.337Z,15.95
2018-09-17T23:04:45.063Z,15.92
2018-09-17T23:07:14.853Z,15.83
2018-09-17T23:09:44.597Z,15.76
2018-09-17T23:12:14.356Z,15.78
2018-09-17T23:14:44.089Z,15.71
2018-09-17T23:17:13.695Z,15.67
2018-09-17T23:19:43.501Z,15.66
2018-09-17T23:22:12.998Z,15.61
2018-09-17T23:24:42.857Z,15.54
2018-09-17T23:27:13.660Z,15.49
2018-09-17T23:29:44.556Z,15.44
2018-09-17T23:32:13.948Z,15.47
2018-09-17T23:34:43.756Z,15.44
2018-09-17T23:37:13.535Z,15.41
2018-09-17T23:39:43.242Z,15.44
2018-09-17T23:42:13.165Z,15.47
2018-09-17T23:44:42.889Z,15.49
2018-09-17T23:47:13.328Z,15.37
2018-09-17T23:49:43.122Z,15.40
2018-09-17T23:52:13.242Z,15.41
2018-09-17T23:54:43.043Z,15.30
2018-09-17T23:57:12.522Z,15.21
2018-09-17T23:59:42.535Z,15.17
